sensor_id;sensor_type;location;lat;lon;timestamp;P1;durP1;ratioP1;P2;durP2;ratioP2
48871;SDS011;36154;51.674;7.824;2022-09-12T00:00:08;1.45;;;1.35;;
48871;SDS011;36154;51.674;7.824;2022-09-12T00:02:34;1.70;;;1.60;;
48871;SDS011;36154;51.674;7.824;2022-09-12T00:05:00;1.90;;;1.80;;
48871;SDS011;36154;51.674;7.824;2022-09-12T00:07:25;1.58;;;1.50;;
48871;SDS011;36154;51.674;7.824;2022-09-12T00:09:50;1.50;;;1.40;;
48871;SDS011;36154;51.674;7.824;2022-09-12T00:12:15;1.55;;;1.55;;
48871;SDS011;36154;51.674;7.824;2022-09-12T00:14:41;1.50;;;1.50;;
48871;SDS011;36154;51.674;7.824;2022-09-12T00:17:06;1.50;;;1.50;;
48871;SDS011;36154;51.674;7.824;2022-09-12T00:19:31;1.30;;;1.30;;
48871;SDS011;36154;51.674;7.824;2022-09-12T00:21:57;1.73;;;1.63;;
48871;SDS011;36154;51.674;7.824;2022-09-12T00:24:22;1.52;;;1.52;;
48871;SDS011;36154;51.674;7.824;2022-09-12T00:26:47;1.70;;;1.60;;
48871;SDS011;36154;51.674;7.824;2022-09-12T00:29:14;1.42;;;1.40;;
48871;SDS011;36154;51.674;7.824;2022-09-12T00:31:40;1.67;;;1.58;;
48871;SDS011;36154;51.674;7.824;2022-09-12T00:34:06;1.90;;;1.80;;
48871;SDS011;36154;51.674;7.824;2022-09-12T00:36:31;1.83;;;1.73;;
48871;SDS011;36154;51.674;7.824;2022-09-12T00:38:57;1.70;;;1.60;;
48871;SDS011;36154;51.674;7.824;2022-09-12T00:41:24;1.60;;;1.60;;
48871;SDS011;36154;51.674;7.824;2022-09-12T00:43:58;1.58;;;1.55;;
48871;SDS011;36154;51.674;7.824;2022-09-12T00:46:45;1.90;;;1.80;;
48871;SDS011;36154;51.674;7.824;2022-09-12T00:49:13;1.73;;;1.63;;
48871;SDS011;36154;51.674;7.824;2022-09-12T00:54:26;1.60;;;1.50;;
48871;SDS011;36154;51.674;7.824;2022-09-12T00:56:55;1.50;;;1.40;;
48871;SDS011;36154;51.674;7.824;2022-09-12T00:59:31;1.83;;;1.73;;
48871;SDS011;36154;51.674;7.824;2022-09-12T01:02:07;1.88;;;1.77;;
48871;SDS011;36154;51.674;7.824;2022-09-12T01:04:36;1.60;;;1.58;;
48871;SDS011;36154;51.674;7.824;2022-09-12T01:07:05;1.65;;;1.60;;
48871;SDS011;36154;51.674;7.824;2022-09-12T01:09:33;1.75;;;1.67;;
48871;SDS011;36154;51.674;7.824;2022-09-12T01:12:00;1.83;;;1.73;;
48871;SDS011;36154;51.674;7.824;2022-09-12T01:14:26;2.10;;;2.00;;
48871;SDS011;36154;51.674;7.824;2022-09-12T01:16:54;1.80;;;1.70;;
48871;SDS011;36154;51.674;7.824;2022-09-12T01:22:35;1.88;;;1.77;;
48871;SDS011;36154;51.674;7.824;2022-09-12T01:25:40;1.50;;;1.40;;
48871;SDS011;36154;51.674;7.824;2022-09-12T01:31:41;1.60;;;1.50;;
48871;SDS011;36154;51.674;7.824;2022-09-12T01:34:51;1.45;;;1.45;;
48871;SDS011;36154;51.674;7.824;2022-09-12T01:37:25;1.65;;;1.55;;
48871;SDS011;36154;51.674;7.824;2022-09-12T01:45:19;2.72;;;1.45;;
48871;SDS011;36154;51.674;7.824;2022-09-12T01:47:56;1.70;;;1.60;;
48871;SDS011;36154;51.674;7.824;2022-09-12T01:50:29;2.67;;;1.88;;
48871;SDS011;36154;51.674;7.824;2022-09-12T01:52:58;1.60;;;1.50;;
48871;SDS011;36154;51.674;7.824;2022-09-12T01:55:32;1.45;;;1.45;;
48871;SDS011;36154;51.674;7.824;2022-09-12T01:58:10;1.50;;;1.50;;
48871;SDS011;36154;51.674;7.824;2022-09-12T02:00:48;1.40;;;1.30;;
48871;SDS011;36154;51.674;7.824;2022-09-12T02:03:24;1.65;;;1.48;;
48871;SDS011;36154;51.674;7.824;2022-09-12T02:05:58;1.33;;;1.33;;
48871;SDS011;36154;51.674;7.824;2022-09-12T02:08:34;1.40;;;1.30;;
48871;SDS011;36154;51.674;7.824;2022-09-12T02:11:10;2.55;;;1.67;;
48871;SDS011;36154;51.674;7.824;2022-09-12T02:13:43;1.70;;;1.60;;
48871;SDS011;36154;51.674;7.824;2022-09-12T02:16:21;1.40;;;1.40;;
48871;SDS011;36154;51.674;7.824;2022-09-12T02:19:11;1.65;;;1.55;;
48871;SDS011;36154;51.674;7.824;2022-09-12T02:22:08;1.40;;;1.40;;
48871;SDS011;36154;51.674;7.824;2022-09-12T02:24:40;1.10;;;1.10;;
48871;SDS011;36154;51.674;7.824;2022-09-12T02:27:10;1.70;;;1.60;;
48871;SDS011;36154;51.674;7.824;2022-09-12T02:29:43;1.33;;;1.33;;
48871;SDS011;36154;51.674;7.824;2022-09-12T02:32:35;1.35;;;1.25;;
48871;SDS011;36154;51.674;7.824;2022-09-12T02:37:59;1.27;;;1.27;;
48871;SDS011;36154;51.674;7.824;2022-09-12T02:40:30;1.33;;;1.33;;
48871;SDS011;36154;51.674;7.824;2022-09-12T02:43:02;1.50;;;1.40;;
48871;SDS011;36154;51.674;7.824;2022-09-12T02:45:30;1.40;;;1.40;;
48871;SDS011;36154;51.674;7.824;2022-09-12T02:47:59;1.38;;;1.27;;
48871;SDS011;36154;51.674;7.824;2022-09-12T02:50:29;1.70;;;1.60;;
48871;SDS011;36154;51.674;7.824;2022-09-12T02:52:56;1.67;;;1.58;;
48871;SDS011;36154;51.674;7.824;2022-09-12T02:55:29;1.45;;;1.35;;
48871;SDS011;36154;51.674;7.824;2022-09-12T02:57:56;1.40;;;1.40;;
48871;SDS011;36154;51.674;7.824;2022-09-12T03:00:23;1.40;;;1.40;;
48871;SDS011;36154;51.674;7.824;2022-09-12T03:05:50;1.75;;;1.65;;
48871;SDS011;36154;51.674;7.824;2022-09-12T03:08:41;2.00;;;1.90;;
48871;SDS011;36154;51.674;7.824;2022-09-12T03:16:56;3.30;;;2.25;;
48871;SDS011;36154;51.674;7.824;2022-09-12T03:22:17;2.25;;;2.15;;
48871;SDS011;36154;51.674;7.824;2022-09-12T03:27:36;2.20;;;2.10;;
48871;SDS011;36154;51.674;7.824;2022-09-12T03:30:09;2.10;;;2.00;;
48871;SDS011;36154;51.674;7.824;2022-09-12T03:32:43;2.75;;;2.40;;
48871;SDS011;36154;51.674;7.824;2022-09-12T03:35:11;2.40;;;2.28;;
48871;SDS011;36154;51.674;7.824;2022-09-12T03:37:38;2.30;;;2.20;;
48871;SDS011;36154;51.674;7.824;2022-09-12T03:40:05;2.90;;;2.40;;
48871;SDS011;36154;51.674;7.824;2022-09-12T03:42:32;2.47;;;2.38;;
48871;SDS011;36154;51.674;7.824;2022-09-12T03:44:58;2.60;;;2.40;;
48871;SDS011;36154;51.674;7.824;2022-09-12T03:47:24;3.35;;;2.30;;
48871;SDS011;36154;51.674;7.824;2022-09-12T03:49:50;2.42;;;2.15;;
48871;SDS011;36154;51.674;7.824;2022-09-12T03:52:19;2.42;;;2.33;;
48871;SDS011;36154;51.674;7.824;2022-09-12T03:54:46;2.20;;;2.10;;
48871;SDS011;36154;51.674;7.824;2022-09-12T03:57:14;3.72;;;2.22;;
48871;SDS011;36154;51.674;7.824;2022-09-12T03:59:41;2.30;;;2.20;;
48871;SDS011;36154;51.674;7.824;2022-09-12T04:02:07;2.35;;;2.25;;
48871;SDS011;36154;51.674;7.824;2022-09-12T04:04:40;2.28;;;2.08;;
48871;SDS011;36154;51.674;7.824;2022-09-12T04:07:08;2.40;;;2.30;;
48871;SDS011;36154;51.674;7.824;2022-09-12T04:09:34;2.35;;;2.25;;
48871;SDS011;36154;51.674;7.824;2022-09-12T04:12:05;2.33;;;2.22;;
48871;SDS011;36154;51.674;7.824;2022-09-12T04:14:33;2.75;;;2.65;;
48871;SDS011;36154;51.674;7.824;2022-09-12T04:17:02;2.50;;;2.30;;
48871;SDS011;36154;51.674;7.824;2022-09-12T04:19:28;2.13;;;1.95;;
48871;SDS011;36154;51.674;7.824;2022-09-12T04:21:54;5.78;;;2.30;;
48871;SDS011;36154;51.674;7.824;2022-09-12T04:24:23;2.28;;;2.15;;
48871;SDS011;36154;51.674;7.824;2022-09-12T04:26:50;3.45;;;2.53;;
48871;SDS011;36154;51.674;7.824;2022-09-12T04:29:17;3.70;;;2.40;;
48871;SDS011;36154;51.674;7.824;2022-09-12T04:31:43;5.13;;;2.80;;
48871;SDS011;36154;51.674;7.824;2022-09-12T04:34:09;8.32;;;3.08;;
48871;SDS011;36154;51.674;7.824;2022-09-12T04:36:39;9.25;;;3.80;;
48871;SDS011;36154;51.674;7.824;2022-09-12T04:39:06;14.18;;;5.97;;
48871;SDS011;36154;51.674;7.824;2022-09-12T04:41:34;9.80;;;6.63;;
48871;SDS011;36154;51.674;7.824;2022-09-12T04:44:03;8.60;;;6.53;;
48871;SDS011;36154;51.674;7.824;2022-09-12T04:46:32;8.20;;;6.70;;
48871;SDS011;36154;51.674;7.824;2022-09-12T04:49:00;8.10;;;6.47;;
48871;SDS011;36154;51.674;7.824;2022-09-12T04:51:27;10.15;;;7.53;;
48871;SDS011;36154;51.674;7.824;2022-09-12T04:53:59;7.60;;;6.40;;
48871;SDS011;36154;51.674;7.824;2022-09-12T04:56:35;9.93;;;6.28;;
48871;SDS011;36154;51.674;7.824;2022-09-12T04:59:03;7.53;;;6.82;;
48871;SDS011;36154;51.674;7.824;2022-09-12T05:01:29;7.43;;;6.40;;
48871;SDS011;36154;51.674;7.824;2022-09-12T05:03:56;8.55;;;7.22;;
48871;SDS011;36154;51.674;7.824;2022-09-12T05:06:25;8.15;;;6.93;;
48871;SDS011;36154;51.674;7.824;2022-09-12T05:08:55;7.85;;;6.72;;
48871;SDS011;36154;51.674;7.824;2022-09-12T05:11:23;7.18;;;6.47;;
48871;SDS011;36154;51.674;7.824;2022-09-12T05:13:51;6.93;;;6.32;;
48871;SDS011;36154;51.674;7.824;2022-09-12T05:16:18;6.90;;;6.15;;
48871;SDS011;36154;51.674;7.824;2022-09-12T05:18:45;7.45;;;6.32;;
48871;SDS011;36154;51.674;7.824;2022-09-12T05:21:12;7.28;;;6.40;;
48871;SDS011;36154;51.674;7.824;2022-09-12T05:23:40;7.43;;;6.68;;
48871;SDS011;36154;51.674;7.824;2022-09-12T05:26:06;6.85;;;6.25;;
48871;SDS011;36154;51.674;7.824;2022-09-12T05:28:37;6.82;;;6.22;;
48871;SDS011;36154;51.674;7.824;2022-09-12T05:31:22;6.82;;;6.22;;
48871;SDS011;36154;51.674;7.824;2022-09-12T05:33:50;10.38;;;6.28;;
48871;SDS011;36154;51.674;7.824;2022-09-12T05:36:24;8.98;;;6.57;;
48871;SDS011;36154;51.674;7.824;2022-09-12T05:38:54;7.75;;;6.32;;
48871;SDS011;36154;51.674;7.824;2022-09-12T05:41:21;6.20;;;5.70;;
48871;SDS011;36154;51.674;7.824;2022-09-12T05:43:51;5.82;;;5.32;;
48871;SDS011;36154;51.674;7.824;2022-09-12T05:46:30;6.18;;;5.68;;
48871;SDS011;36154;51.674;7.824;2022-09-12T05:49:18;6.20;;;5.65;;
48871;SDS011;36154;51.674;7.824;2022-09-12T05:51:45;7.13;;;5.80;;
48871;SDS011;36154;51.674;7.824;2022-09-12T05:54:13;6.47;;;5.88;;
48871;SDS011;36154;51.674;7.824;2022-09-12T05:56:44;6.20;;;5.57;;
48871;SDS011;36154;51.674;7.824;2022-09-12T05:59:18;6.00;;;5.45;;
48871;SDS011;36154;51.674;7.824;2022-09-12T06:01:48;6.53;;;4.82;;
48871;SDS011;36154;51.674;7.824;2022-09-12T06:04:14;5.88;;;5.38;;
48871;SDS011;36154;51.674;7.824;2022-09-12T06:06:41;5.63;;;5.10;;
48871;SDS011;36154;51.674;7.824;2022-09-12T06:09:12;6.25;;;5.72;;
48871;SDS011;36154;51.674;7.824;2022-09-12T06:11:39;6.20;;;5.63;;
48871;SDS011;36154;51.674;7.824;2022-09-12T06:14:05;5.20;;;4.72;;
48871;SDS011;36154;51.674;7.824;2022-09-12T06:16:33;7.70;;;5.40;;
48871;SDS011;36154;51.674;7.824;2022-09-12T06:19:00;5.35;;;4.50;;
48871;SDS011;36154;51.674;7.824;2022-09-12T06:21:31;4.20;;;3.35;;
48871;SDS011;36154;51.674;7.824;2022-09-12T06:23:59;3.50;;;2.40;;
48871;SDS011;36154;51.674;7.824;2022-09-12T06:26:26;4.72;;;2.75;;
48871;SDS011;36154;51.674;7.824;2022-09-12T06:28:53;3.38;;;1.58;;
48871;SDS011;36154;51.674;7.824;2022-09-12T06:31:22;1.88;;;1.77;;
48871;SDS011;36154;51.674;7.824;2022-09-12T06:33:50;3.72;;;1.42;;
48871;SDS011;36154;51.674;7.824;2022-09-12T06:36:19;2.88;;;1.02;;
48871;SDS011;36154;51.674;7.824;2022-09-12T06:38:54;1.17;;;1.08;;
48871;SDS011;36154;51.674;7.824;2022-09-12T06:41:22;3.33;;;1.10;;
48871;SDS011;36154;51.674;7.824;2022-09-12T06:43:49;0.90;;;0.90;;
48871;SDS011;36154;51.674;7.824;2022-09-12T06:46:15;4.00;;;0.80;;
48871;SDS011;36154;51.674;7.824;2022-09-12T06:48:43;0.60;;;0.60;;
48871;SDS011;36154;51.674;7.824;2022-09-12T06:51:10;0.80;;;0.80;;
48871;SDS011;36154;51.674;7.824;2022-09-12T06:53:38;0.70;;;0.70;;
48871;SDS011;36154;51.674;7.824;2022-09-12T06:56:08;0.60;;;0.60;;
48871;SDS011;36154;51.674;7.824;2022-09-12T06:58:41;1.30;;;0.60;;
48871;SDS011;36154;51.674;7.824;2022-09-12T07:01:09;0.50;;;0.50;;
48871;SDS011;36154;51.674;7.824;2022-09-12T07:03:39;0.50;;;0.50;;
48871;SDS011;36154;51.674;7.824;2022-09-12T07:06:08;2.05;;;0.50;;
48871;SDS011;36154;51.674;7.824;2022-09-12T07:08:43;0.40;;;0.40;;
48871;SDS011;36154;51.674;7.824;2022-09-12T07:11:16;0.47;;;0.47;;
48871;SDS011;36154;51.674;7.824;2022-09-12T07:13:43;0.55;;;0.55;;
48871;SDS011;36154;51.674;7.824;2022-09-12T07:16:16;1.40;;;0.40;;
48871;SDS011;36154;51.674;7.824;2022-09-12T07:18:43;1.77;;;0.35;;
48871;SDS011;36154;51.674;7.824;2022-09-12T07:21:11;0.30;;;0.30;;
48871;SDS011;36154;51.674;7.824;2022-09-12T07:23:40;0.40;;;0.40;;
48871;SDS011;36154;51.674;7.824;2022-09-12T07:26:10;0.73;;;0.30;;
48871;SDS011;36154;51.674;7.824;2022-09-12T07:28:41;0.50;;;0.38;;
48871;SDS011;36154;51.674;7.824;2022-09-12T07:31:08;0.30;;;0.30;;
48871;SDS011;36154;51.674;7.824;2022-09-12T07:33:35;0.40;;;0.40;;
48871;SDS011;36154;51.674;7.824;2022-09-12T07:36:03;0.30;;;0.30;;
48871;SDS011;36154;51.674;7.824;2022-09-12T07:38:30;0.30;;;0.30;;
48871;SDS011;36154;51.674;7.824;2022-09-12T07:40:57;1.17;;;0.30;;
48871;SDS011;36154;51.674;7.824;2022-09-12T07:43:23;1.10;;;0.30;;
48871;SDS011;36154;51.674;7.824;2022-09-12T07:45:59;0.40;;;0.40;;
48871;SDS011;36154;51.674;7.824;2022-09-12T07:48:28;0.30;;;0.30;;
48871;SDS011;36154;51.674;7.824;2022-09-12T07:51:00;0.30;;;0.30;;
48871;SDS011;36154;51.674;7.824;2022-09-12T07:53:33;1.15;;;0.40;;
48871;SDS011;36154;51.674;7.824;2022-09-12T07:56:01;0.30;;;0.30;;
48871;SDS011;36154;51.674;7.824;2022-09-12T07:58:28;0.70;;;0.38;;
48871;SDS011;36154;51.674;7.824;2022-09-12T08:01:02;0.40;;;0.40;;
48871;SDS011;36154;51.674;7.824;2022-09-12T08:03:33;0.30;;;0.30;;
48871;SDS011;36154;51.674;7.824;2022-09-12T08:06:09;0.43;;;0.40;;
48871;SDS011;36154;51.674;7.824;2022-09-12T08:08:38;0.40;;;0.40;;
48871;SDS011;36154;51.674;7.824;2022-09-12T08:11:06;0.68;;;0.32;;
48871;SDS011;36154;51.674;7.824;2022-09-12T08:13:38;0.45;;;0.45;;
48871;SDS011;36154;51.674;7.824;2022-09-12T08:16:06;0.40;;;0.40;;
48871;SDS011;36154;51.674;7.824;2022-09-12T08:18:36;0.30;;;0.30;;
48871;SDS011;36154;51.674;7.824;2022-09-12T08:21:04;0.28;;;0.28;;
48871;SDS011;36154;51.674;7.824;2022-09-12T08:23:32;0.30;;;0.20;;
48871;SDS011;36154;51.674;7.824;2022-09-12T08:26:00;0.40;;;0.40;;
48871;SDS011;36154;51.674;7.824;2022-09-12T08:28:29;0.40;;;0.40;;
48871;SDS011;36154;51.674;7.824;2022-09-12T08:31:00;0.45;;;0.45;;
48871;SDS011;36154;51.674;7.824;2022-09-12T08:33:30;2.30;;;0.50;;
48871;SDS011;36154;51.674;7.824;2022-09-12T08:38:35;0.70;;;0.70;;
48871;SDS011;36154;51.674;7.824;2022-09-12T08:41:03;0.95;;;0.80;;
48871;SDS011;36154;51.674;7.824;2022-09-12T08:49:03;0.90;;;0.90;;
48871;SDS011;36154;51.674;7.824;2022-09-12T08:51:37;0.88;;;0.60;;
48871;SDS011;36154;51.674;7.824;2022-09-12T08:54:05;0.50;;;0.50;;
48871;SDS011;36154;51.674;7.824;2022-09-12T08:56:47;0.75;;;0.70;;
48871;SDS011;36154;51.674;7.824;2022-09-12T08:59:13;0.52;;;0.50;;
48871;SDS011;36154;51.674;7.824;2022-09-12T09:01:41;0.57;;;0.57;;
48871;SDS011;36154;51.674;7.824;2022-09-12T09:07:14;0.50;;;0.50;;
48871;SDS011;36154;51.674;7.824;2022-09-12T09:12:52;0.60;;;0.60;;
48871;SDS011;36154;51.674;7.824;2022-09-12T09:18:37;0.60;;;0.60;;
48871;SDS011;36154;51.674;7.824;2022-09-12T09:21:08;1.45;;;0.82;;
48871;SDS011;36154;51.674;7.824;2022-09-12T09:24:04;0.50;;;0.50;;
48871;SDS011;36154;51.674;7.824;2022-09-12T09:26:45;0.57;;;0.57;;
48871;SDS011;36154;51.674;7.824;2022-09-12T09:29:18;0.88;;;0.68;;
48871;SDS011;36154;51.674;7.824;2022-09-12T09:31:47;0.60;;;0.60;;
48871;SDS011;36154;51.674;7.824;2022-09-12T09:34:23;0.80;;;0.80;;
48871;SDS011;36154;51.674;7.824;2022-09-12T09:45:36;0.60;;;0.60;;
48871;SDS011;36154;51.674;7.824;2022-09-12T09:48:07;0.73;;;0.73;;
48871;SDS011;36154;51.674;7.824;2022-09-12T09:50:44;1.20;;;0.70;;
48871;SDS011;36154;51.674;7.824;2022-09-12T09:56:34;1.00;;;1.00;;
48871;SDS011;36154;51.674;7.824;2022-09-12T09:59:10;0.90;;;0.90;;
48871;SDS011;36154;51.674;7.824;2022-09-12T10:01:42;1.10;;;1.10;;
48871;SDS011;36154;51.674;7.824;2022-09-12T10:06:55;1.25;;;1.15;;
48871;SDS011;36154;51.674;7.824;2022-09-12T10:09:25;1.27;;;1.20;;
48871;SDS011;36154;51.674;7.824;2022-09-12T10:11:53;1.00;;;1.00;;
48871;SDS011;36154;51.674;7.824;2022-09-12T10:17:24;1.02;;;0.95;;
48871;SDS011;36154;51.674;7.824;2022-09-12T10:19:52;1.08;;;0.95;;
48871;SDS011;36154;51.674;7.824;2022-09-12T10:22:22;1.25;;;1.15;;
48871;SDS011;36154;51.674;7.824;2022-09-12T10:24:59;0.90;;;0.90;;
48871;SDS011;36154;51.674;7.824;2022-09-12T10:27:29;1.17;;;1.17;;
48871;SDS011;36154;51.674;7.824;2022-09-12T10:30:06;1.02;;;1.02;;
48871;SDS011;36154;51.674;7.824;2022-09-12T10:32:45;1.13;;;1.02;;
48871;SDS011;36154;51.674;7.824;2022-09-12T10:35:18;1.05;;;0.90;;
48871;SDS011;36154;51.674;7.824;2022-09-12T10:37:51;1.08;;;0.98;;
48871;SDS011;36154;51.674;7.824;2022-09-12T10:43:33;1.00;;;1.00;;
48871;SDS011;36154;51.674;7.824;2022-09-12T10:48:46;1.83;;;1.27;;
48871;SDS011;36154;51.674;7.824;2022-09-12T10:51:25;1.10;;;1.10;;
48871;SDS011;36154;51.674;7.824;2022-09-12T10:53:54;1.20;;;1.10;;
48871;SDS011;36154;51.674;7.824;2022-09-12T11:02:43;1.17;;;1.17;;
48871;SDS011;36154;51.674;7.824;2022-09-12T11:08:11;1.00;;;1.00;;
48871;SDS011;36154;51.674;7.824;2022-09-12T11:10:46;1.17;;;1.17;;
48871;SDS011;36154;51.674;7.824;2022-09-12T11:13:25;1.00;;;1.00;;
48871;SDS011;36154;51.674;7.824;2022-09-12T11:16:26;1.00;;;0.90;;
48871;SDS011;36154;51.674;7.824;2022-09-12T11:19:24;1.02;;;1.00;;
48871;SDS011;36154;51.674;7.824;2022-09-12T11:27:37;0.95;;;0.95;;
48871;SDS011;36154;51.674;7.824;2022-09-12T11:30:30;0.80;;;0.80;;
48871;SDS011;36154;51.674;7.824;2022-09-12T11:33:12;0.93;;;0.93;;
48871;SDS011;36154;51.674;7.824;2022-09-12T11:35:50;1.00;;;1.00;;
48871;SDS011;36154;51.674;7.824;2022-09-12T11:41:01;0.80;;;0.80;;
48871;SDS011;36154;51.674;7.824;2022-09-12T11:43:33;0.93;;;0.90;;
48871;SDS011;36154;51.674;7.824;2022-09-12T11:51:27;0.85;;;0.82;;
48871;SDS011;36154;51.674;7.824;2022-09-12T11:54:02;0.85;;;0.85;;
48871;SDS011;36154;51.674;7.824;2022-09-12T11:56:37;0.82;;;0.82;;
48871;SDS011;36154;51.674;7.824;2022-09-12T11:59:12;0.70;;;0.70;;
48871;SDS011;36154;51.674;7.824;2022-09-12T12:01:45;0.80;;;0.80;;
48871;SDS011;36154;51.674;7.824;2022-09-12T12:04:16;1.10;;;1.00;;
48871;SDS011;36154;51.674;7.824;2022-09-12T12:06:53;0.68;;;0.68;;
48871;SDS011;36154;51.674;7.824;2022-09-12T12:09:25;0.70;;;0.70;;
48871;SDS011;36154;51.674;7.824;2022-09-12T12:11:52;0.68;;;0.68;;
48871;SDS011;36154;51.674;7.824;2022-09-12T12:14:28;0.60;;;0.60;;
48871;SDS011;36154;51.674;7.824;2022-09-12T12:17:12;0.80;;;0.80;;
48871;SDS011;36154;51.674;7.824;2022-09-12T12:19:42;0.80;;;0.80;;
48871;SDS011;36154;51.674;7.824;2022-09-12T12:22:21;0.85;;;0.85;;
48871;SDS011;36154;51.674;7.824;2022-09-12T12:25:05;0.73;;;0.73;;
48871;SDS011;36154;51.674;7.824;2022-09-12T12:38:52;0.60;;;0.60;;
48871;SDS011;36154;51.674;7.824;2022-09-12T12:46:16;0.70;;;0.70;;
48871;SDS011;36154;51.674;7.824;2022-09-12T12:48:48;0.80;;;0.80;;
48871;SDS011;36154;51.674;7.824;2022-09-12T12:53:59;0.57;;;0.57;;
48871;SDS011;36154;51.674;7.824;2022-09-12T12:56:38;0.60;;;0.60;;
48871;SDS011;36154;51.674;7.824;2022-09-12T12:59:19;0.82;;;0.82;;
48871;SDS011;36154;51.674;7.824;2022-09-12T13:01:48;0.60;;;0.60;;
48871;SDS011;36154;51.674;7.824;2022-09-12T13:04:18;0.68;;;0.55;;
48871;SDS011;36154;51.674;7.824;2022-09-12T13:06:56;0.73;;;0.73;;
48871;SDS011;36154;51.674;7.824;2022-09-12T13:12:05;1.20;;;0.80;;
48871;SDS011;36154;51.674;7.824;2022-09-12T13:20:13;3.42;;;0.60;;
48871;SDS011;36154;51.674;7.824;2022-09-12T13:22:46;0.68;;;0.68;;
48871;SDS011;36154;51.674;7.824;2022-09-12T13:30:32;0.73;;;0.73;;
48871;SDS011;36154;51.674;7.824;2022-09-12T13:33:22;0.73;;;0.60;;
48871;SDS011;36154;51.674;7.824;2022-09-12T13:44:36;1.00;;;1.00;;
48871;SDS011;36154;51.674;7.824;2022-09-12T13:47:10;0.73;;;0.68;;
48871;SDS011;36154;51.674;7.824;2022-09-12T13:49:46;3.05;;;0.90;;
48871;SDS011;36154;51.674;7.824;2022-09-12T13:52:23;2.10;;;0.90;;
48871;SDS011;36154;51.674;7.824;2022-09-12T13:54:54;0.90;;;0.90;;
48871;SDS011;36154;51.674;7.824;2022-09-12T13:57:34;1.38;;;0.90;;
48871;SDS011;36154;51.674;7.824;2022-09-12T14:00:09;0.82;;;0.80;;
48871;SDS011;36154;51.674;7.824;2022-09-12T14:02:43;0.95;;;0.90;;
48871;SDS011;36154;51.674;7.824;2022-09-12T14:05:17;1.42;;;0.90;;
48871;SDS011;36154;51.674;7.824;2022-09-12T14:10:33;1.02;;;0.80;;
48871;SDS011;36154;51.674;7.824;2022-09-12T14:15:30;1.38;;;0.90;;
48871;SDS011;36154;51.674;7.824;2022-09-12T14:18:00;1.00;;;1.00;;
48871;SDS011;36154;51.674;7.824;2022-09-12T14:20:28;0.88;;;0.88;;
48871;SDS011;36154;51.674;7.824;2022-09-12T14:23:00;1.33;;;1.00;;
48871;SDS011;36154;51.674;7.824;2022-09-12T14:25:30;1.10;;;1.00;;
48871;SDS011;36154;51.674;7.824;2022-09-12T14:28:03;1.05;;;0.85;;
48871;SDS011;36154;51.674;7.824;2022-09-12T14:30:34;0.98;;;0.98;;
48871;SDS011;36154;51.674;7.824;2022-09-12T14:35:50;0.85;;;0.85;;
48871;SDS011;36154;51.674;7.824;2022-09-12T14:38:35;1.08;;;0.98;;
48871;SDS011;36154;51.674;7.824;2022-09-12T14:41:10;0.82;;;0.82;;
48871;SDS011;36154;51.674;7.824;2022-09-12T14:43:49;0.90;;;0.90;;
48871;SDS011;36154;51.674;7.824;2022-09-12T14:46:34;0.90;;;0.90;;
48871;SDS011;36154;51.674;7.824;2022-09-12T14:49:07;0.88;;;0.88;;
48871;SDS011;36154;51.674;7.824;2022-09-12T14:51:54;0.80;;;0.80;;
48871;SDS011;36154;51.674;7.824;2022-09-12T14:56:55;0.88;;;0.88;;
48871;SDS011;36154;51.674;7.824;2022-09-12T15:04:45;0.70;;;0.70;;
48871;SDS011;36154;51.674;7.824;2022-09-12T15:07:14;1.10;;;1.10;;
48871;SDS011;36154;51.674;7.824;2022-09-12T15:09:49;1.25;;;1.08;;
48871;SDS011;36154;51.674;7.824;2022-09-12T15:12:15;1.00;;;1.00;;
48871;SDS011;36154;51.674;7.824;2022-09-12T15:14:41;0.98;;;0.98;;
48871;SDS011;36154;51.674;7.824;2022-09-12T15:17:06;1.00;;;1.00;;
48871;SDS011;36154;51.674;7.824;2022-09-12T15:19:32;1.00;;;1.00;;
48871;SDS011;36154;51.674;7.824;2022-09-12T15:21:58;0.93;;;0.93;;
48871;SDS011;36154;51.674;7.824;2022-09-12T15:24:24;0.85;;;0.85;;
48871;SDS011;36154;51.674;7.824;2022-09-12T15:26:53;0.90;;;0.90;;
48871;SDS011;36154;51.674;7.824;2022-09-12T15:29:18;1.02;;;1.00;;
48871;SDS011;36154;51.674;7.824;2022-09-12T15:31:45;2.03;;;0.85;;
48871;SDS011;36154;51.674;7.824;2022-09-12T15:34:11;2.25;;;1.10;;
48871;SDS011;36154;51.674;7.824;2022-09-12T15:36:37;1.13;;;1.05;;
48871;SDS011;36154;51.674;7.824;2022-09-12T15:39:03;2.30;;;0.90;;
48871;SDS011;36154;51.674;7.824;2022-09-12T15:41:33;2.60;;;0.90;;
48871;SDS011;36154;51.674;7.824;2022-09-12T15:44:04;1.85;;;1.42;;
48871;SDS011;36154;51.674;7.824;2022-09-12T15:46:36;1.30;;;1.13;;
48871;SDS011;36154;51.674;7.824;2022-09-12T15:49:02;1.45;;;1.30;;
48871;SDS011;36154;51.674;7.824;2022-09-12T15:51:28;2.47;;;1.10;;
48871;SDS011;36154;51.674;7.824;2022-09-12T15:53:54;1.15;;;0.98;;
48871;SDS011;36154;51.674;7.824;2022-09-12T15:56:20;1.10;;;1.00;;
48871;SDS011;36154;51.674;7.824;2022-09-12T15:58:47;1.17;;;1.00;;
48871;SDS011;36154;51.674;7.824;2022-09-12T16:01:14;0.80;;;0.80;;
48871;SDS011;36154;51.674;7.824;2022-09-12T16:03:41;5.88;;;1.13;;
48871;SDS011;36154;51.674;7.824;2022-09-12T16:06:07;1.13;;;1.00;;
48871;SDS011;36154;51.674;7.824;2022-09-12T16:08:35;0.70;;;0.70;;
48871;SDS011;36154;51.674;7.824;2022-09-12T16:11:02;1.65;;;0.90;;
48871;SDS011;36154;51.674;7.824;2022-09-12T16:13:31;1.25;;;0.85;;
48871;SDS011;36154;51.674;7.824;2022-09-12T16:15:58;0.70;;;0.70;;
48871;SDS011;36154;51.674;7.824;2022-09-12T16:18:25;0.88;;;0.88;;
48871;SDS011;36154;51.674;7.824;2022-09-12T16:20:55;0.60;;;0.60;;
48871;SDS011;36154;51.674;7.824;2022-09-12T16:23:22;1.48;;;0.60;;
48871;SDS011;36154;51.674;7.824;2022-09-12T16:25:55;0.60;;;0.60;;
48871;SDS011;36154;51.674;7.824;2022-09-12T16:28:22;0.60;;;0.60;;
48871;SDS011;36154;51.674;7.824;2022-09-12T16:30:57;0.93;;;0.93;;
48871;SDS011;36154;51.674;7.824;2022-09-12T16:33:25;2.88;;;0.88;;
48871;SDS011;36154;51.674;7.824;2022-09-12T16:35:51;1.73;;;0.60;;
48871;SDS011;36154;51.674;7.824;2022-09-12T16:38:21;0.50;;;0.50;;
48871;SDS011;36154;51.674;7.824;2022-09-12T16:40:47;0.60;;;0.60;;
48871;SDS011;36154;51.674;7.824;2022-09-12T16:43:13;0.60;;;0.60;;
48871;SDS011;36154;51.674;7.824;2022-09-12T16:45:42;0.70;;;0.70;;
48871;SDS011;36154;51.674;7.824;2022-09-12T16:48:10;1.05;;;0.50;;
48871;SDS011;36154;51.674;7.824;2022-09-12T16:50:36;0.65;;;0.65;;
48871;SDS011;36154;51.674;7.824;2022-09-12T16:53:02;1.65;;;0.65;;
48871;SDS011;36154;51.674;7.824;2022-09-12T16:55:28;0.65;;;0.65;;
48871;SDS011;36154;51.674;7.824;2022-09-12T16:57:54;0.82;;;0.65;;
48871;SDS011;36154;51.674;7.824;2022-09-12T17:00:20;0.50;;;0.50;;
48871;SDS011;36154;51.674;7.824;2022-09-12T17:02:46;0.55;;;0.40;;
48871;SDS011;36154;51.674;7.824;2022-09-12T17:05:12;0.57;;;0.50;;
48871;SDS011;36154;51.674;7.824;2022-09-12T17:07:41;0.75;;;0.60;;
48871;SDS011;36154;51.674;7.824;2022-09-12T17:10:07;0.57;;;0.50;;
48871;SDS011;36154;51.674;7.824;2022-09-12T17:12:33;0.60;;;0.60;;
48871;SDS011;36154;51.674;7.824;2022-09-12T17:14:59;0.63;;;0.63;;
48871;SDS011;36154;51.674;7.824;2022-09-12T17:17:25;0.75;;;0.52;;
48871;SDS011;36154;51.674;7.824;2022-09-12T17:19:51;0.40;;;0.40;;
48871;SDS011;36154;51.674;7.824;2022-09-12T17:22:17;0.50;;;0.50;;
48871;SDS011;36154;51.674;7.824;2022-09-12T17:24:43;0.30;;;0.30;;
48871;SDS011;36154;51.674;7.824;2022-09-12T17:27:09;0.50;;;0.50;;
48871;SDS011;36154;51.674;7.824;2022-09-12T17:29:35;0.50;;;0.50;;
48871;SDS011;36154;51.674;7.824;2022-09-12T17:32:02;0.50;;;0.50;;
48871;SDS011;36154;51.674;7.824;2022-09-12T17:34:28;0.45;;;0.45;;
48871;SDS011;36154;51.674;7.824;2022-09-12T17:36:54;0.40;;;0.40;;
48871;SDS011;36154;51.674;7.824;2022-09-12T17:39:20;0.40;;;0.40;;
48871;SDS011;36154;51.674;7.824;2022-09-12T17:41:46;0.40;;;0.40;;